<?xml version="1.0" encoding="UTF-8" standalone="no" ?>
<gpx xmlns="http://www.topografix.com/GPX/1/1" xmlns:xsi="http://www.w3.org/2001/XMLSchema-instance" xsi:schemaLocation="http://www.topografix.com/GPX/1/1 http://www.topografix.com/GPX/1/1/gpx.xsd" version="1.1" creator="VisuGPX - https://www.visugpx.com">
  <metadata>
    <name>combe marion et coillu bordel </name>
    <desc><![CDATA[ski de la combe marion vers le coillu aller et retour]]></desc>
  </metadata>
  <wpt lat="46.17959" lon="5.91672">
    <ele>494.96</ele>
    <name><![CDATA[001]]></name>
  </wpt>
  <wpt lat="45.96373" lon="6.77729">
    <ele>1768.94</ele>
    <name><![CDATA[002]]></name>
  </wpt>
  <wpt lat="45.92289" lon="6.48432">
    <ele>1547.84</ele>
    <name><![CDATA[003]]></name>
  </wpt>
  <wpt lat="45.92679" lon="6.51817">
    <ele>2077.52</ele>
    <name><![CDATA[004]]></name>
  </wpt>
  <wpt lat="46.17998" lon="5.91662">
    <ele>426.23</ele>
    <name><![CDATA[005]]></name>
  </wpt>
  <wpt lat="46.17981" lon="5.91659">
    <ele>599.98</ele>
    <name><![CDATA[006]]></name>
  </wpt>
  <wpt lat="46.25476" lon="5.92722">
    <ele>1635.8</ele>
    <name><![CDATA[007]]></name>
  </wpt>
  <wpt lat="46.25699" lon="5.92978">
    <ele>1441.61</ele>
    <name><![CDATA[008]]></name>
  </wpt>
  <trk>
    <name><![CDATA[ACTIVE LOG: 23 JAN 2010 15:25]]></name>
    <trkseg>
      <trkpt lat="46.25918" lon="5.99182">
        <ele>512.04</ele>
        <time>2010-01-23T14:25:27Z</time>
      </trkpt>
      <trkpt lat="46.25918" lon="5.9918">
        <ele>510.12</ele>
        <time>2010-01-23T14:25:30Z</time>
      </trkpt>
      <trkpt lat="46.2592" lon="5.99156">
        <ele>510.6</ele>
        <time>2010-01-23T14:25:55Z</time>
      </trkpt>
      <trkpt lat="46.25918" lon="5.99158">
        <ele>510.6</ele>
        <time>2010-01-23T14:26:15Z</time>
      </trkpt>
      <trkpt lat="46.25924" lon="5.99168">
        <ele>510.12</ele>
        <time>2010-01-23T14:26:40Z</time>
      </trkpt>
      <trkpt lat="46.25928" lon="5.99165">
        <ele>511.56</ele>
        <time>2010-01-23T14:27:21Z</time>
      </trkpt>
      <trkpt lat="46.25929" lon="5.9916">
        <ele>512.04</ele>
        <time>2010-01-23T14:27:44Z</time>
      </trkpt>
      <trkpt lat="46.2592" lon="5.99163">
        <ele>512.52</ele>
        <time>2010-01-23T14:28:29Z</time>
      </trkpt>
      <trkpt lat="46.2592" lon="5.99164">
        <ele>512.04</ele>
        <time>2010-01-23T14:28:50Z</time>
      </trkpt>
      <trkpt lat="46.25925" lon="5.99161">
        <ele>512.52</ele>
        <time>2010-01-23T14:29:04Z</time>
      </trkpt>
      <trkpt lat="46.2593" lon="5.9916">
        <ele>512.52</ele>
        <time>2010-01-23T14:29:40Z</time>
      </trkpt>
      <trkpt lat="46.25923" lon="5.99154">
        <ele>513.96</ele>
        <time>2010-01-23T14:30:01Z</time>
      </trkpt>
      <trkpt lat="46.25924" lon="5.99156">
        <ele>513</ele>
        <time>2010-01-23T14:30:05Z</time>
      </trkpt>
      <trkpt lat="46.25929" lon="5.99164">
        <ele>513</ele>
        <time>2010-01-23T14:30:11Z</time>
      </trkpt>
      <trkpt lat="46.25922" lon="5.99169">
        <ele>513.96</ele>
        <time>2010-01-23T14:30:55Z</time>
      </trkpt>
      <trkpt lat="46.25916" lon="5.9918">
        <ele>514.44</ele>
        <time>2010-01-23T14:31:22Z</time>
      </trkpt>
      <trkpt lat="46.25919" lon="5.9918">
        <ele>513.96</ele>
        <time>2010-01-23T14:32:07Z</time>
      </trkpt>
      <trkpt lat="46.25917" lon="5.99178">
        <ele>513.48</ele>
        <time>2010-01-23T14:32:34Z</time>
      </trkpt>
      <trkpt lat="46.25913" lon="5.99174">
        <ele>514.44</ele>
        <time>2010-01-23T14:33:08Z</time>
      </trkpt>
      <trkpt lat="46.25914" lon="5.99167">
        <ele>514.44</ele>
        <time>2010-01-23T14:33:34Z</time>
      </trkpt>
      <trkpt lat="46.25924" lon="5.99164">
        <ele>514.44</ele>
        <time>2010-01-23T14:34:05Z</time>
      </trkpt>
      <trkpt lat="46.25932" lon="5.9916">
        <ele>514.92</ele>
        <time>2010-01-23T14:34:25Z</time>
      </trkpt>
      <trkpt lat="46.25929" lon="5.99167">
        <ele>514.44</ele>
        <time>2010-01-23T14:34:43Z</time>
      </trkpt>
      <trkpt lat="46.25926" lon="5.99163">
        <ele>514.92</ele>
        <time>2010-01-23T14:35:38Z</time>
      </trkpt>
      <trkpt lat="46.25918" lon="5.99155">
        <ele>514.44</ele>
        <time>2010-01-23T14:36:02Z</time>
      </trkpt>
      <trkpt lat="46.25925" lon="5.99163">
        <ele>515.88</ele>
        <time>2010-01-23T14:36:31Z</time>
      </trkpt>
      <trkpt lat="46.25922" lon="5.99157">
        <ele>515.4</ele>
        <time>2010-01-23T14:37:05Z</time>
      </trkpt>
      <trkpt lat="46.25919" lon="5.99173">
        <ele>515.88</ele>
        <time>2010-01-23T14:37:49Z</time>
      </trkpt>
      <trkpt lat="46.25915" lon="5.99179">
        <ele>515.4</ele>
        <time>2010-01-23T14:38:18Z</time>
      </trkpt>
      <trkpt lat="46.25909" lon="5.99197">
        <ele>515.4</ele>
        <time>2010-01-23T14:38:51Z</time>
      </trkpt>
      <trkpt lat="46.25915" lon="5.99183">
        <ele>515.88</ele>
        <time>2010-01-23T14:39:14Z</time>
      </trkpt>
      <trkpt lat="46.2591" lon="5.99183">
        <ele>515.88</ele>
        <time>2010-01-23T14:40:02Z</time>
      </trkpt>
      <trkpt lat="46.25908" lon="5.99189">
        <ele>517.81</ele>
        <time>2010-01-23T14:40:20Z</time>
      </trkpt>
      <trkpt lat="46.25907" lon="5.99188">
        <ele>514.44</ele>
        <time>2010-01-23T14:40:40Z</time>
      </trkpt>
      <trkpt lat="46.25914" lon="5.99192">
        <ele>516.37</ele>
        <time>2010-01-23T14:41:08Z</time>
      </trkpt>
      <trkpt lat="46.2592" lon="5.99193">
        <ele>515.88</ele>
        <time>2010-01-23T14:41:32Z</time>
      </trkpt>
      <trkpt lat="46.25924" lon="5.99191">
        <ele>516.85</ele>
        <time>2010-01-23T14:41:56Z</time>
      </trkpt>
      <trkpt lat="46.25921" lon="5.99175">
        <ele>516.85</ele>
        <time>2010-01-23T14:42:38Z</time>
      </trkpt>
      <trkpt lat="46.25926" lon="5.99171">
        <ele>516.37</ele>
        <time>2010-01-23T14:43:00Z</time>
      </trkpt>
      <trkpt lat="46.25913" lon="5.99169">
        <ele>515.88</ele>
        <time>2010-01-23T14:43:19Z</time>
      </trkpt>
      <trkpt lat="46.25909" lon="5.99164">
        <ele>516.37</ele>
        <time>2010-01-23T14:43:35Z</time>
      </trkpt>
      <trkpt lat="46.25911" lon="5.99159">
        <ele>516.85</ele>
        <time>2010-01-23T14:43:47Z</time>
      </trkpt>
      <trkpt lat="46.25914" lon="5.99161">
        <ele>516.85</ele>
        <time>2010-01-23T14:43:54Z</time>
      </trkpt>
      <trkpt lat="46.25889" lon="5.99134">
        <ele>516.85</ele>
        <time>2010-01-23T14:44:06Z</time>
      </trkpt>
      <trkpt lat="46.25869" lon="5.99114">
        <ele>516.37</ele>
        <time>2010-01-23T14:44:13Z</time>
      </trkpt>
      <trkpt lat="46.25908" lon="5.99124">
        <ele>516.85</ele>
        <time>2010-01-23T14:44:17Z</time>
      </trkpt>
      <trkpt lat="46.2592" lon="5.99142">
        <ele>517.33</ele>
        <time>2010-01-23T14:44:33Z</time>
      </trkpt>
      <trkpt lat="46.25921" lon="5.9915">
        <ele>516.85</ele>
        <time>2010-01-23T14:44:46Z</time>
      </trkpt>
      <trkpt lat="46.25922" lon="5.99151">
        <ele>516.37</ele>
        <time>2010-01-23T14:45:02Z</time>
      </trkpt>
      <trkpt lat="46.25922" lon="5.99151">
        <ele>516.37</ele>
        <time>2010-01-23T14:45:04Z</time>
      </trkpt>
      <trkpt lat="46.2592" lon="5.99162">
        <ele>516.37</ele>
        <time>2010-01-23T14:45:16Z</time>
      </trkpt>
      <trkpt lat="46.25921" lon="5.99161">
        <ele>516.37</ele>
        <time>2010-01-23T14:45:29Z</time>
      </trkpt>
      <trkpt lat="46.25913" lon="5.99166">
        <ele>516.37</ele>
        <time>2010-01-23T14:45:44Z</time>
      </trkpt>
      <trkpt lat="46.25906" lon="5.99157">
        <ele>516.85</ele>
        <time>2010-01-23T14:46:06Z</time>
      </trkpt>
      <trkpt lat="46.25919" lon="5.99152">
        <ele>516.85</ele>
        <time>2010-01-23T14:46:13Z</time>
      </trkpt>
      <trkpt lat="46.2592" lon="5.99153">
        <ele>517.33</ele>
        <time>2010-01-23T14:46:26Z</time>
      </trkpt>
      <trkpt lat="46.25919" lon="5.99144">
        <ele>516.85</ele>
        <time>2010-01-23T14:46:39Z</time>
      </trkpt>
      <trkpt lat="46.25919" lon="5.99143">
        <ele>516.85</ele>
        <time>2010-01-23T14:46:40Z</time>
      </trkpt>
      <trkpt lat="46.25911" lon="5.9912">
        <ele>518.29</ele>
        <time>2010-01-23T14:46:55Z</time>
      </trkpt>
      <trkpt lat="46.2591" lon="5.9917">
        <ele>517.81</ele>
        <time>2010-01-23T14:47:13Z</time>
      </trkpt>
      <trkpt lat="46.25914" lon="5.99182">
        <ele>517.81</ele>
        <time>2010-01-23T14:47:47Z</time>
      </trkpt>
      <trkpt lat="46.25916" lon="5.99183">
        <ele>518.29</ele>
        <time>2010-01-23T14:48:11Z</time>
      </trkpt>
      <trkpt lat="46.2592" lon="5.99176">
        <ele>519.25</ele>
        <time>2010-01-23T14:48:48Z</time>
      </trkpt>
      <trkpt lat="46.25913" lon="5.99174">
        <ele>518.77</ele>
        <time>2010-01-23T14:50:22Z</time>
      </trkpt>
      <trkpt lat="46.25913" lon="5.99173">
        <ele>522.13</ele>
        <time>2010-01-23T14:50:28Z</time>
      </trkpt>
      <trkpt lat="46.25914" lon="5.9917">
        <ele>517.81</ele>
        <time>2010-01-23T14:50:33Z</time>
      </trkpt>
      <trkpt lat="46.25915" lon="5.99166">
        <ele>521.17</ele>
        <time>2010-01-23T14:50:37Z</time>
      </trkpt>
      <trkpt lat="46.25914" lon="5.99163">
        <ele>519.73</ele>
        <time>2010-01-23T14:50:40Z</time>
      </trkpt>
    </trkseg>
  </trk>
</gpx>